MZ-0027 weather

Blanguete Airport
Tete Province, Mozambique

Public forecast

Using degrees Celsius for public forecast. Weather courtesy of forecast.io.

Closest aviation weather report (METAR) to Blanguete Airport

Closest report is Kariba International Airport, 111.5 nm (206.4 km) WSW. Retrieved 2019/10/19 07:00 UTC (1 hour ago):

FVKB 190700Z 07004KT CAVOK 33/12 Q1014

Closest aviation forecast (TAF) to Blanguete Airport

Forecast is more than 12 hours old.

Closest forecast is Jeki Airport, 58.3 nm (108.0 km) W. Retrieved 2019/10/18 12:00 UTC (20 hours ago):

TAF FLJK 181000Z 1812/1918 12008KT 9000 HZ SKC BECMG 1818/1820 VRB04KT CAVOK BECMG 1906/1908 09010KT 9000 HZ SKC BECMG 1913/1915 14005KT